Time;durP1;ratioP1;P1;durP2;ratioP2;P2;SDS_P1;SDS_P2;PMS_P1;PMS_P2;Temp;Humidity;BMP_temperature;BMP_pressure;BME280_temperature;BME280_humidity;BME280_pressure;Samples;Min_cycle;Max_cycle;Signal;HPM_P1;HPM_P2
2022/01/15 00:01:05;;;;;;;5.18;2.97;;;;;;;-2.32;81.62;99881.22;4994520;28;20046;-85
2022/01/15 00:03:37;;;;;;;6.13;2.10;;;;;;;-2.34;81.75;99880.28;4984281;28;20070;-84
2022/01/15 00:06:08;;;;;;;3.70;1.80;;;;;;;-2.23;81.35;99891.69;4988829;28;20093;-83
2022/01/15 00:08:39;;;;;;;4.53;1.48;;;;;;;-2.22;81.12;99893.44;4986336;28;20051;-83
2022/01/15 00:11:09;;;;;;;6.30;2.63;;;;;;;-2.27;81.04;99910.34;4987957;28;20046;-83
2022/01/15 00:13:43;;;;;;;4.53;1.58;;;;;;;-2.24;81.13;99900.19;4966176;28;20058;-84
2022/01/15 00:16:27;;;;;;;8.75;2.03;;;;;;;-2.10;81.15;99905.72;4982889;28;20059;-84
2022/01/15 00:19:10;;;;;;;4.50;1.80;;;;;;;-2.07;80.37;99912.59;4983124;28;20066;-84
2022/01/15 00:21:40;;;;;;;6.35;1.80;;;;;;;-2.08;80.17;99931.38;4984259;28;20368;-82
2022/01/15 00:24:11;;;;;;;7.75;1.55;;;;;;;-2.13;79.76;99917.56;4982749;28;20092;-84
2022/01/15 00:26:42;;;;;;;3.55;1.42;;;;;;;-1.97;79.68;99935.13;4982513;28;20050;-82
2022/01/15 00:29:13;;;;;;;5.93;1.67;;;;;;;-1.93;78.28;99931.78;4982625;28;20358;-83
2022/01/15 00:31:43;;;;;;;5.35;1.63;;;;;;;-1.86;77.96;99941.41;4982383;28;20113;-85
2022/01/15 00:34:16;;;;;;;2.50;1.27;;;;;;;-1.77;77.50;99944.22;4982414;28;20398;-83
2022/01/15 00:36:46;;;;;;;3.10;1.85;;;;;;;-1.66;77.57;99946.22;4982145;28;20055;-82
2022/01/15 00:39:17;;;;;;;4.35;1.65;;;;;;;-1.60;76.77;99946.38;4982198;28;20343;-82
2022/01/15 00:41:48;;;;;;;3.38;1.23;;;;;;;-1.99;76.05;99880.44;4982396;28;20398;-83
2022/01/15 00:44:19;;;;;;;7.22;1.55;;;;;;;-1.55;76.40;99952.47;4983247;28;20050;-83
2022/01/15 00:46:50;;;;;;;2.50;1.33;;;;;;;-1.51;76.00;99956.88;4989868;28;20290;-81
2022/01/15 00:49:22;;;;;;;6.13;1.50;;;;;;;-1.45;76.16;99951.91;4991269;28;20262;-83
2022/01/15 00:51:53;;;;;;;5.63;1.52;;;;;;;-1.44;76.07;99948.53;4984931;28;20055;-83
2022/01/15 00:54:24;;;;;;;4.20;1.70;;;;;;;-1.42;75.32;99972.50;4982361;28;20046;-80
2022/01/15 00:56:54;;;;;;;7.78;2.05;;;;;;;-1.36;75.21;99969.25;4982190;28;20110;-80
2022/01/15 00:59:25;;;;;;;3.30;1.52;;;;;;;-1.39;74.62;99972.59;4982113;28;20357;-81
2022/01/15 01:01:56;;;;;;;4.57;1.70;;;;;;;-1.38;74.84;99966.63;4982010;28;20062;-81
2022/01/15 01:04:28;;;;;;;3.53;1.40;;;;;;;-1.28;74.91;99984.81;4982062;28;20130;-81
2022/01/15 01:06:59;;;;;;;2.15;1.50;;;;;;;-1.33;74.11;99977.88;4982023;28;20090;-81
2022/01/15 01:09:44;;;;;;;6.63;1.75;;;;;;;-1.42;74.15;99977.63;4981946;28;20212;-83
2022/01/15 01:12:28;;;;;;;3.10;1.55;;;;;;;-1.67;73.83;99952.13;4982125;28;20076;-82
2022/01/15 01:20:52;;;;;;;5.47;2.50;;;;;;;-1.48;74.09;99997.94;4982147;28;20117;-86
2022/01/15 01:23:24;;;;;;;4.63;1.60;;;;;;;-1.40;74.11;99996.50;4982009;28;20351;-81
2022/01/15 01:26:00;;;;;;;4.13;1.52;;;;;;;-1.38;73.78;100005.06;4982114;28;20349;-80
2022/01/15 01:28:34;;;;;;;3.92;1.50;;;;;;;-1.33;73.60;100000.94;4982140;28;20069;-83
2022/01/15 01:31:12;;;;;;;4.07;1.85;;;;;;;-1.30;74.26;100000.16;4982182;28;20069;-82
2022/01/15 01:33:47;;;;;;;4.50;1.95;;;;;;;-1.13;73.35;100016.00;4983713;28;20067;-81
2022/01/15 01:36:24;;;;;;;6.05;1.98;;;;;;;-1.12;73.14;99998.09;4985478;28;20235;-83
2022/01/15 01:38:59;;;;;;;5.32;1.70;;;;;;;-0.93;72.88;100014.81;4985390;28;20078;-83
2022/01/15 01:41:35;;;;;;;4.80;1.90;;;;;;;-0.81;72.68;100004.00;4985404;28;20060;-83
2022/01/15 01:44:08;;;;;;;2.17;1.13;;;;;;;-0.80;72.02;100012.56;5005234;28;20085;-82
2022/01/15 01:46:45;;;;;;;5.03;1.65;;;;;;;-0.73;71.36;100017.03;5004957;28;20050;-82
2022/01/15 01:49:18;;;;;;;4.05;1.27;;;;;;;-0.68;71.78;100013.72;5004665;28;20046;-87
2022/01/15 01:51:51;;;;;;;6.13;1.73;;;;;;;-0.73;71.43;100006.75;5004356;28;20069;-82
2022/01/15 01:54:22;;;;;;;3.67;1.13;;;;;;;-0.78;71.32;100008.34;5004583;28;20353;-81
2022/01/15 01:56:52;;;;;;;4.30;1.40;;;;;;;-0.75;71.47;100003.28;5004701;28;20330;-82
2022/01/15 01:59:23;;;;;;;3.05;1.38;;;;;;;-0.73;71.06;100011.88;5004798;28;20074;-82
2022/01/15 02:01:53;;;;;;;2.65;1.20;;;;;;;-0.67;71.43;100012.06;4995303;28;20055;-81
2022/01/15 02:04:24;;;;;;;4.63;1.52;;;;;;;-0.59;70.95;100014.81;4985132;28;20054;-79
2022/01/15 02:06:57;;;;;;;6.30;1.80;;;;;;;-0.53;71.64;100023.50;4984902;28;20046;-80
2022/01/15 02:09:27;;;;;;;3.65;1.52;;;;;;;-0.62;70.20;100017.28;4985044;28;20074;-82
2022/01/15 02:11:58;;;;;;;4.07;1.42;;;;;;;-0.65;70.48;100023.19;4984884;28;20250;-81
2022/01/15 02:14:30;;;;;;;2.03;1.42;;;;;;;-1.35;69.97;99933.41;4984921;28;20086;-81
2022/01/15 02:17:01;;;;;;;3.20;1.20;;;;;;;-0.81;69.71;100029.66;4984787;28;20065;-81
2022/01/15 02:19:45;;;;;;;2.00;1.20;;;;;;;-0.70;70.10;100028.25;4984809;28;20049;-81
2022/01/15 02:25:09;;;;;;;2.42;1.38;;;;;;;-0.69;70.72;100037.66;4930701;28;20079;-80
2022/01/15 02:27:40;;;;;;;3.63;1.52;;;;;;;-0.74;70.64;100035.81;4984516;28;20094;-81
2022/01/15 02:30:13;;;;;;;3.80;1.55;;;;;;;-0.73;70.54;100027.28;4984363;28;20078;-81
2022/01/15 02:32:43;;;;;;;8.02;1.60;;;;;;;-0.74;70.88;100036.69;4984484;28;20108;-81
2022/01/15 02:35:16;;;;;;;4.97;1.85;;;;;;;-0.69;71.18;100039.38;4984538;28;20094;-80
2022/01/15 02:37:46;;;;;;;5.32;1.58;;;;;;;-0.65;70.62;100041.16;4984561;28;20050;-80
2022/01/15 02:40:17;;;;;;;4.78;1.95;;;;;;;-0.64;70.31;100047.19;4984770;28;20351;-81
2022/01/15 02:42:48;;;;;;;2.65;1.50;;;;;;;-0.55;70.49;100043.16;4984501;28;20106;-80
2022/01/15 02:45:22;;;;;;;5.95;1.83;;;;;;;-0.45;70.17;100049.38;4983637;28;20094;-81
2022/01/15 02:48:02;;;;;;;4.70;2.10;;;;;;;-0.43;70.07;100042.56;4984304;28;20080;-80
2022/01/15 02:50:34;;;;;;;5.43;1.88;;;;;;;-0.34;69.86;100036.81;4984160;28;20143;-81
2022/01/15 02:53:06;;;;;;;7.75;1.60;;;;;;;-0.31;69.02;100044.56;4984167;28;20084;-80
2022/01/15 02:55:37;;;;;;;4.78;1.35;;;;;;;-0.34;69.02;100041.94;4984451;28;20064;-80
2022/01/15 02:58:07;;;;;;;4.25;1.92;;;;;;;-0.37;69.24;100031.59;4984376;28;20053;-80
2022/01/15 03:00:38;;;;;;;2.95;1.50;;;;;;;-0.30;68.98;100038.59;4986522;28;20073;-80
2022/01/15 03:03:09;;;;;;;3.47;1.20;;;;;;;-0.34;68.54;100031.69;4991881;28;20051;-80
2022/01/15 03:05:42;;;;;;;3.78;1.50;;;;;;;-0.17;68.18;100045.78;4993833;28;20105;-80
2022/01/15 03:08:12;;;;;;;3.42;1.33;;;;;;;-0.14;67.92;100040.72;4990591;28;20047;-79
2022/01/15 03:10:43;;;;;;;4.68;1.40;;;;;;;-0.06;68.06;100043.44;4983975;28;20270;-79
2022/01/15 03:13:14;;;;;;;2.00;1.00;;;;;;;-0.09;66.98;100039.09;4983763;28;20069;-78
2022/01/15 03:15:44;;;;;;;3.00;1.40;;;;;;;-0.08;67.60;100045.97;4984288;28;20356;-79
2022/01/15 03:18:15;;;;;;;7.85;1.77;;;;;;;0.03;67.68;100043.66;4983930;28;20070;-79
2022/01/15 03:20:48;;;;;;;5.15;1.45;;;;;;;-0.04;67.34;100027.25;4993426;28;20335;-80
2022/01/15 03:23:19;;;;;;;3.90;1.42;;;;;;;0.12;68.25;100048.13;4990576;28;20049;-79
2022/01/15 03:25:49;;;;;;;4.22;1.65;;;;;;;0.18;68.14;100043.13;4991374;28;20053;-80
2022/01/15 03:28:20;;;;;;;2.40;1.38;;;;;;;0.35;68.70;100048.63;4991539;28;20081;-80
2022/01/15 03:30:51;;;;;;;2.95;1.50;;;;;;;0.48;68.37;100054.91;5002813;28;20105;-77
2022/01/15 03:33:22;;;;;;;5.43;1.67;;;;;;;0.42;67.21;100053.97;5002533;28;20258;-77
2022/01/15 03:35:54;;;;;;;2.50;1.38;;;;;;;0.37;66.52;100049.53;5002755;28;20238;-76
2022/01/15 03:38:25;;;;;;;5.18;1.33;;;;;;;0.29;66.34;100057.06;5002578;28;20262;-77
2022/01/15 03:40:55;;;;;;;2.25;1.38;;;;;;;0.20;66.64;100051.72;5002862;28;20046;-82
2022/01/15 03:43:26;;;;;;;3.40;1.50;;;;;;;-0.20;64.65;100035.44;5002808;28;20047;-79
2022/01/15 03:45:57;;;;;;;2.38;1.30;;;;;;;-0.22;64.94;100042.25;5002675;28;20058;-80
2022/01/15 03:48:28;;;;;;;2.83;1.40;;;;;;;-0.13;65.82;100062.97;5002755;28;20054;-82
2022/01/15 03:51:00;;;;;;;3.15;1.35;;;;;;;-0.24;64.53;100061.88;4978993;28;20275;-81
2022/01/15 03:53:31;;;;;;;2.65;1.50;;;;;;;-0.23;65.61;100071.28;4974351;28;20058;-80
2022/01/15 03:56:01;;;;;;;4.65;1.70;;;;;;;-0.41;65.28;100046.06;4970009;28;20050;-82
2022/01/15 03:58:32;;;;;;;2.20;1.58;;;;;;;-0.25;65.41;100078.09;4978611;28;20117;-83
2022/01/15 04:01:03;;;;;;;2.55;1.30;;;;;;;-0.26;65.21;100074.66;4993362;28;20054;-83
2022/01/15 04:03:34;;;;;;;4.30;1.55;;;;;;;-0.23;66.00;100084.13;4991390;28;20379;-83
2022/01/15 04:06:06;;;;;;;2.95;1.55;;;;;;;-0.29;65.20;100086.56;4982867;28;20046;-83
2022/01/15 04:08:37;;;;;;;3.00;1.60;;;;;;;-0.36;66.75;100084.69;4982826;28;20302;-83
2022/01/15 04:11:08;;;;;;;4.30;1.40;;;;;;;-0.21;66.69;100090.19;4982824;28;20051;-81
2022/01/15 04:13:39;;;;;;;4.97;1.40;;;;;;;-0.20;65.47;100085.91;4985266;28;20088;-81
2022/01/15 04:16:09;;;;;;;3.05;1.50;;;;;;;-0.26;66.15;100081.50;4992300;28;20050;-82
2022/01/15 04:18:41;;;;;;;2.25;1.45;;;;;;;-0.23;65.38;100102.09;4991827;28;20049;-82
2022/01/15 04:21:14;;;;;;;3.58;1.63;;;;;;;-0.25;65.75;100098.63;4990489;28;20070;-80
2022/01/15 04:23:45;;;;;;;2.60;1.33;;;;;;;-0.29;65.52;100101.97;4990646;28;20306;-80
2022/01/15 04:26:15;;;;;;;3.85;1.58;;;;;;;-0.52;65.27;100081.72;4991803;28;20109;-81
2022/01/15 04:28:46;;;;;;;3.80;1.50;;;;;;;-0.30;65.22;100110.47;4993240;28;20230;-83
2022/01/15 04:31:17;;;;;;;3.40;1.60;;;;;;;-0.32;65.60;100118.16;4991763;28;20070;-82
2022/01/15 04:33:48;;;;;;;4.75;1.77;;;;;;;-0.57;65.96;100080.75;4987931;28;20134;-84
2022/01/15 04:36:21;;;;;;;3.90;1.70;;;;;;;-0.36;65.85;100136.03;4991219;28;20101;-84
2022/01/15 04:38:51;;;;;;;5.85;1.63;;;;;;;-0.44;66.11;100134.13;4990348;28;20111;-87
2022/01/15 04:41:22;;;;;;;3.65;1.50;;;;;;;-0.57;65.92;100132.06;4992429;28;20084;-89
2022/01/15 04:43:53;;;;;;;3.30;1.42;;;;;;;-0.77;66.45;100107.59;4990688;28;20106;-85
2022/01/15 04:46:23;;;;;;;5.90;1.75;;;;;;;-0.64;66.79;100145.56;4989935;28;20077;-81
2022/01/15 04:48:54;;;;;;;5.53;1.80;;;;;;;-0.60;66.70;100142.25;4963047;28;20083;-89
2022/01/15 04:51:26;;;;;;;2.92;1.42;;;;;;;-0.77;66.21;100138.38;4989197;28;20051;-84
2022/01/15 04:53:57;;;;;;;4.55;1.55;;;;;;;-0.99;66.01;100112.13;4990143;28;20130;-81
2022/01/15 04:56:28;;;;;;;3.15;1.50;;;;;;;-0.74;66.03;100158.97;4988913;28;20275;-82
2022/01/15 04:58:59;;;;;;;5.30;1.40;;;;;;;-0.78;66.74;100157.13;4995729;28;20073;-85
2022/01/15 05:01:29;;;;;;;9.88;1.70;;;;;;;-0.81;67.37;100157.06;4991363;28;20239;-83
2022/01/15 05:04:00;;;;;;;3.10;1.30;;;;;;;-1.02;67.24;100132.56;4989962;28;20046;-81
2022/01/15 05:06:33;;;;;;;3.45;1.48;;;;;;;-0.81;66.90;100167.31;4990635;28;20105;-82
2022/01/15 05:09:05;;;;;;;3.40;1.27;;;;;;;-0.84;66.97;100173.25;4994442;28;20081;-80
2022/01/15 05:11:46;;;;;;;4.72;1.73;;;;;;;-0.95;67.34;100167.81;4996026;28;20626;-79
2022/01/15 05:14:19;;;;;;;5.22;1.40;;;;;;;-1.39;67.19;100103.31;4993747;28;20057;-79
2022/01/15 05:16:51;;;;;;;2.78;1.25;;;;;;;-0.88;68.16;100190.22;4994629;28;20109;-77
2022/01/15 05:19:21;;;;;;;5.22;1.40;;;;;;;-0.96;67.88;100181.44;4982900;28;20050;-79
2022/01/15 05:21:55;;;;;;;4.55;1.58;;;;;;;-0.85;67.69;100197.13;5005254;28;20047;-80
2022/01/15 05:24:31;;;;;;;3.72;1.40;;;;;;;-1.01;69.03;100193.28;5004253;28;20046;-80
2022/01/15 05:27:02;;;;;;;6.15;1.85;;;;;;;-0.90;68.67;100209.84;4981060;28;20061;-80
2022/01/15 05:29:33;;;;;;;4.43;1.50;;;;;;;-1.21;68.26;100161.06;4983601;28;20102;-80
2022/01/15 05:32:05;;;;;;;2.85;1.23;;;;;;;-0.98;69.43;100206.19;4984064;28;20070;-79
2022/01/15 05:34:40;;;;;;;3.33;1.38;;;;;;;-1.01;69.80;100211.22;4983579;28;20067;-80
2022/01/15 05:37:13;;;;;;;2.83;1.42;;;;;;;-1.05;69.91;100214.50;4983631;28;20122;-80
2022/01/15 05:39:44;;;;;;;6.43;1.60;;;;;;;-1.28;70.39;100175.38;4983704;28;20538;-79
2022/01/15 05:42:15;;;;;;;5.47;1.52;;;;;;;-1.12;71.02;100207.50;4984224;28;20047;-80
2022/01/15 05:44:45;;;;;;;4.88;1.50;;;;;;;-1.17;70.62;100214.19;4983823;28;20334;-79
2022/01/15 05:47:17;;;;;;;2.28;1.15;;;;;;;-1.26;70.95;100211.31;4982133;28;20081;-79
2022/01/15 05:49:47;;;;;;;4.15;1.42;;;;;;;-1.34;71.21;100206.84;4979847;28;20110;-81
2022/01/15 05:52:19;;;;;;;3.10;1.60;;;;;;;-1.23;71.41;100234.47;4983820;28;20070;-81
2022/01/15 05:54:50;;;;;;;4.63;1.25;;;;;;;-1.25;71.00;100231.00;4983979;28;20082;-80
2022/01/15 05:57:21;;;;;;;3.53;1.20;;;;;;;-1.33;71.67;100228.19;4982820;28;20055;-81
2022/01/15 05:59:52;;;;;;;3.50;1.25;;;;;;;-1.34;71.07;100242.72;4984385;28;20047;-83
2022/01/15 06:02:29;;;;;;;2.00;1.40;;;;;;;-1.48;70.98;100231.16;4984380;28;20065;-80
2022/01/15 06:05:14;;;;;;;;;;;;;;;;;;;;;
2022/01/15 06:08:14;;;;;;;4.63;1.48;;;;;;;-1.43;70.54;100247.53;4943443;28;20038;-82
2022/01/15 06:10:45;;;;;;;2.58;1.30;;;;;;;-1.44;71.18;100256.06;4983961;28;20046;-82
2022/01/15 06:13:16;;;;;;;3.72;1.35;;;;;;;-1.47;71.47;100268.78;4983588;28;20097;-85
2022/01/15 06:15:47;;;;;;;2.30;1.40;;;;;;;-1.47;71.43;100273.91;4983767;28;20055;-83
2022/01/15 06:18:22;;;;;;;2.47;1.33;;;;;;;-1.49;71.60;100267.88;4983964;28;20102;-90
2022/01/15 06:20:53;;;;;;;3.75;1.60;;;;;;;-1.50;71.72;100278.91;4982117;28;20082;-87
2022/01/15 06:23:25;;;;;;;3.42;1.40;;;;;;;-1.51;71.53;100279.75;4983897;28;20224;-89
2022/01/15 06:25:56;;;;;;;5.18;1.48;;;;;;;-1.51;71.06;100295.13;4983732;28;20247;-84
2022/01/15 06:28:26;;;;;;;2.92;1.40;;;;;;;-1.54;70.99;100306.16;4985433;28;20050;-82
2022/01/15 06:30:57;;;;;;;3.90;1.48;;;;;;;-1.86;71.26;100271.78;4993832;28;20054;-81
2022/01/15 06:33:33;;;;;;;2.92;1.65;;;;;;;-1.57;71.05;100318.00;4983453;28;20243;-85
2022/01/15 06:36:04;;;;;;;2.97;1.40;;;;;;;-1.61;71.27;100328.97;4982983;28;20086;-83
2022/01/15 06:38:36;;;;;;;5.68;1.50;;;;;;;-1.62;71.02;100327.19;4985606;28;20074;-82
2022/01/15 06:41:07;;;;;;;6.18;1.30;;;;;;;-1.65;71.15;100327.09;4983779;28;20054;-84
2022/01/15 06:43:38;;;;;;;6.63;1.55;;;;;;;-2.19;71.55;100251.88;4983805;28;20050;-85
2022/01/15 06:46:09;;;;;;;2.25;1.30;;;;;;;-1.73;71.79;100342.22;4978015;28;20110;-81
2022/01/15 06:48:40;;;;;;;3.13;1.38;;;;;;;-1.75;72.09;100349.88;4983065;28;20070;-87
2022/01/15 06:51:11;;;;;;;4.10;1.48;;;;;;;-2.42;72.52;100243.41;4983466;28;20110;-84
2022/01/15 06:53:43;;;;;;;2.75;1.20;;;;;;;-1.81;72.30;100347.06;4983941;28;20077;-90
2022/01/15 06:56:14;;;;;;;3.33;1.45;;;;;;;-1.83;72.54;100363.22;4982620;28;20080;-84
2022/01/15 06:58:45;;;;;;;3.33;1.63;;;;;;;-1.87;72.74;100352.00;4983411;28;20137;-83
2022/01/15 07:01:16;;;;;;;6.32;1.40;;;;;;;-1.88;72.89;100364.75;4983057;28;20074;-84
2022/01/15 07:03:47;;;;;;;2.30;1.25;;;;;;;-1.93;73.21;100374.81;4983651;28;20055;-84
2022/01/15 07:06:18;;;;;;;3.85;1.40;;;;;;;-1.95;73.76;100376.44;4983191;28;20050;-84
2022/01/15 07:08:50;;;;;;;5.38;1.67;;;;;;;-1.99;74.04;100369.50;4982789;28;20051;-84
2022/01/15 07:11:21;;;;;;;4.85;1.52;;;;;;;-1.99;73.65;100388.28;4982991;28;20052;-85
2022/01/15 07:13:52;;;;;;;3.95;1.45;;;;;;;-2.43;73.69;100318.41;4982860;28;20053;-82
2022/01/15 07:16:22;;;;;;;3.13;1.27;;;;;;;-2.03;74.04;100395.78;4982899;28;20078;-83
2022/01/15 07:18:55;;;;;;;2.72;1.35;;;;;;;-2.04;74.41;100399.19;4983686;28;20058;-83
2022/01/15 07:21:25;;;;;;;5.28;1.77;;;;;;;-2.20;74.26;100383.25;4983637;28;20065;-83
2022/01/15 07:23:58;;;;;;;2.22;1.33;;;;;;;-2.07;74.65;100404.16;4984001;28;20083;-83
2022/01/15 07:26:28;;;;;;;4.43;1.95;;;;;;;-2.40;74.88;100363.72;4983642;28;20125;-84
2022/01/15 07:28:59;;;;;;;5.10;1.60;;;;;;;-2.74;75.09;100311.28;4983005;28;20047;-86
2022/01/15 07:31:30;;;;;;;3.40;1.42;;;;;;;-2.11;75.14;100417.69;4982523;28;20082;-84
2022/01/15 07:34:00;;;;;;;4.75;1.70;;;;;;;-2.12;74.89;100419.38;4983239;28;20326;-85
2022/01/15 07:36:31;;;;;;;6.43;1.75;;;;;;;-2.33;74.14;100393.84;4982853;28;20062;-84
2022/01/15 07:39:05;;;;;;;5.63;1.60;;;;;;;-2.21;74.42;100417.34;4982646;28;20046;-85
2022/01/15 07:41:36;;;;;;;3.67;1.45;;;;;;;-2.17;74.94;100439.69;4982644;28;20050;-83
2022/01/15 07:44:07;;;;;;;3.08;1.20;;;;;;;-2.23;74.67;100428.34;4982067;28;20053;-84
2022/01/15 07:46:38;;;;;;;4.00;1.80;;;;;;;-2.22;75.02;100435.19;4982658;28;20371;-85
2022/01/15 07:49:11;;;;;;;12.30;3.60;;;;;;;-2.18;74.80;100445.59;4982278;28;20129;-82
2022/01/15 07:51:42;;;;;;;11.93;3.92;;;;;;;-2.21;75.35;100448.06;4981091;28;20081;-84
2022/01/15 07:54:14;;;;;;;11.07;3.05;;;;;;;-2.48;75.10;100436.75;4980817;28;20069;-83
2022/01/15 07:56:45;;;;;;;37.88;11.20;;;;;;;-2.21;75.20;100463.41;4980928;28;20042;-84
2022/01/15 07:59:16;;;;;;;14.80;4.55;;;;;;;-2.22;75.07;100465.91;4980899;28;20043;-84
2022/01/15 08:01:47;;;;;;;15.32;4.63;;;;;;;-2.22;75.15;100469.38;4981000;28;20066;-83
2022/01/15 08:04:18;;;;;;;12.98;4.10;;;;;;;-2.25;75.22;100474.34;4980947;28;20085;-81
2022/01/15 08:06:49;;;;;;;21.40;6.57;;;;;;;-2.25;75.16;100484.56;4981833;28;20058;-81
2022/01/15 08:09:22;;;;;;;14.35;4.78;;;;;;;-2.25;75.49;100487.13;4981948;28;20065;-82
2022/01/15 08:11:52;;;;;;;15.60;3.83;;;;;;;-2.25;75.42;100491.38;4980951;28;20055;-84
2022/01/15 08:14:23;;;;;;;15.68;5.40;;;;;;;-2.40;75.57;100473.75;4981978;28;20106;-82
2022/01/15 08:16:54;;;;;;;17.20;5.28;;;;;;;-2.28;75.22;100494.72;4981320;28;20109;-89
2022/01/15 08:19:24;;;;;;;16.77;4.90;;;;;;;-2.30;75.55;100504.00;4979594;28;20065;-85
2022/01/15 08:21:55;;;;;;;18.60;3.95;;;;;;;-2.29;75.51;100500.66;4981993;28;20093;-85
2022/01/15 08:24:28;;;;;;;15.32;3.78;;;;;;;-2.31;75.56;100507.38;4983074;28;20088;-84
2022/01/15 08:30:21;;;;;;;10.90;3.33;;;;;;;-2.33;75.58;100500.47;4940827;28;20043;-87
2022/01/15 08:32:53;;;;;;;17.63;4.13;;;;;;;-2.33;75.24;100511.56;4981450;28;20309;-88
2022/01/15 08:35:23;;;;;;;21.45;6.20;;;;;;;-2.33;75.41;100514.13;4981491;28;20239;-83
2022/01/15 08:37:55;;;;;;;25.33;5.43;;;;;;;-2.39;75.72;100508.78;4972550;28;20078;-82
2022/01/15 08:40:33;;;;;;;14.07;3.58;;;;;;;-2.33;75.84;100514.13;4976335;28;20121;-83
2022/01/15 08:43:05;;;;;;;9.70;3.05;;;;;;;-2.86;75.62;100434.44;4980702;28;20111;-84
2022/01/15 08:45:38;;;;;;;10.57;3.13;;;;;;;-2.35;75.82;100526.00;4981371;28;20327;-83
2022/01/15 08:48:09;;;;;;;26.65;5.97;;;;;;;-2.59;75.90;100484.09;4981310;28;20047;-82
2022/01/15 08:50:40;;;;;;;11.30;3.60;;;;;;;-2.52;75.44;100507.44;4981345;28;20049;-82
2022/01/15 08:53:13;;;;;;;14.45;4.60;;;;;;;-2.43;76.00;100524.81;4981459;28;20051;-84
2022/01/15 08:55:46;;;;;;;15.60;4.20;;;;;;;-2.35;76.10;100536.22;4992377;28;20056;-82
2022/01/15 08:58:16;;;;;;;5.28;1.58;;;;;;;-2.36;75.88;100544.72;4987077;28;20047;-82
2022/01/15 09:00:47;;;;;;;4.57;1.63;;;;;;;-2.40;76.12;100543.75;4980576;28;20097;-82
2022/01/15 09:03:19;;;;;;;3.97;1.35;;;;;;;-2.40;75.57;100553.06;4982330;28;20038;-83
2022/01/15 09:05:50;;;;;;;5.70;1.52;;;;;;;-2.49;76.09;100552.72;4981459;28;20110;-81
2022/01/15 09:08:24;;;;;;;3.38;1.60;;;;;;;-2.78;75.92;100506.34;4981579;28;20138;-86
2022/01/15 09:10:57;;;;;;;6.28;1.73;;;;;;;-2.64;75.92;100538.50;4981325;28;20046;-86
2022/01/15 09:13:29;;;;;;;3.15;1.63;;;;;;;-2.41;76.24;100571.81;4981230;28;20110;-83
2022/01/15 09:16:01;;;;;;;6.03;1.70;;;;;;;-2.41;76.29;100574.38;4968300;28;20085;-87
2022/01/15 09:18:34;;;;;;;7.80;1.73;;;;;;;-2.42;76.59;100585.41;4981311;28;20043;-85
2022/01/15 09:21:08;;;;;;;3.97;1.70;;;;;;;-3.08;76.43;100465.91;4975082;28;20098;-86
2022/01/15 09:23:41;;;;;;;12.82;2.03;;;;;;;-2.37;76.86;100589.06;4981403;28;20050;-89
2022/01/15 09:26:34;;;;;;;;;;;;;;;;;;;;;
2022/01/15 09:32:50;;;;;;;5.05;1.80;;;;;;;-3.27;76.48;100425.06;4883995;29;20049;-85
2022/01/15 09:35:23;;;;;;;6.82;2.28;;;;;;;-2.50;76.46;100566.31;4914546;29;20056;-87
2022/01/15 09:38:08;;;;;;;6.70;2.00;;;;;;;-2.88;76.78;100509.34;4921473;29;20107;-83
2022/01/15 09:40:41;;;;;;;11.32;2.05;;;;;;;-2.26;76.26;100610.84;4921583;29;20054;-80
2022/01/15 09:43:23;;;;;;;3.55;1.80;;;;;;;-2.45;76.81;100585.28;4922015;29;20089;-83
2022/01/15 09:45:55;;;;;;;4.55;2.15;;;;;;;-2.31;76.71;100620.00;4923237;29;20043;-80
2022/01/15 09:48:28;;;;;;;5.75;1.70;;;;;;;-2.47;76.59;100602.25;4931421;29;20048;-85
2022/01/15 09:51:00;;;;;;;19.63;5.75;;;;;;;-2.37;76.53;100619.78;4932293;28;20315;-83
2022/01/15 09:53:31;;;;;;;93.30;21.88;;;;;;;-2.36;76.23;100626.63;4981114;28;20362;-83
2022/01/15 09:56:07;;;;;;;113.55;27.95;;;;;;;-2.59;75.90;100586.44;4984954;28;20059;-84
2022/01/15 09:58:50;;;;;;;86.35;23.88;;;;;;;-2.71;76.17;100582.53;4984400;28;20054;-87
2022/01/15 10:01:23;;;;;;;55.13;18.45;;;;;;;-2.50;76.23;100622.59;4989400;28;20043;-84
2022/01/15 10:03:57;;;;;;;7.50;2.40;;;;;;;-2.47;76.65;100643.19;4992043;28;20042;-85
2022/01/15 10:06:29;;;;;;;8.30;2.00;;;;;;;-2.50;76.69;100635.41;4989641;28;20042;-82
2022/01/15 10:09:06;;;;;;;11.75;4.38;;;;;;;-2.48;76.70;100641.47;4993869;28;20081;-88
2022/01/15 10:11:45;;;;;;;5.57;2.22;;;;;;;-2.63;76.79;100632.31;4992144;28;20042;-87
2022/01/15 10:14:30;;;;;;;8.00;2.58;;;;;;;-2.56;77.20;100647.94;4983362;28;20376;-87
2022/01/15 10:17:05;;;;;;;5.22;1.42;;;;;;;-3.13;76.94;100559.44;4987533;28;20092;-87
2022/01/15 10:19:38;;;;;;;7.40;2.08;;;;;;;-3.16;77.49;100561.84;4993812;28;20054;-90
2022/01/15 10:22:13;;;;;;;6.53;2.05;;;;;;;-3.51;77.30;100527.97;4991905;28;20401;-87
2022/01/15 10:24:52;;;;;;;6.63;1.65;;;;;;;-2.63;77.69;100663.03;4990508;28;20377;-87
2022/01/15 10:27:28;;;;;;;6.75;1.80;;;;;;;-2.65;78.22;100664.63;4986643;28;20317;-89
2022/01/15 10:30:05;;;;;;;5.43;1.52;;;;;;;-2.64;78.24;100666.41;4985458;28;20297;-89
2022/01/15 10:32:40;;;;;;;7.97;2.10;;;;;;;-3.67;78.07;100509.31;4986525;28;20062;-88
2022/01/15 10:35:16;;;;;;;6.13;2.00;;;;;;;-2.69;78.49;100672.13;4992746;28;20118;-89
2022/01/15 10:37:51;;;;;;;6.72;2.15;;;;;;;-2.72;78.19;100672.88;4990168;28;20057;-89
2022/01/15 10:40:25;;;;;;;6.60;1.80;;;;;;;-3.64;78.48;100525.69;4993141;28;20046;-88
2022/01/15 10:42:57;;;;;;;9.93;1.80;;;;;;;-2.93;78.48;100657.44;4990678;28;20050;-87
2022/01/15 10:45:34;;;;;;;6.22;1.48;;;;;;;-2.79;78.70;100670.84;4982648;28;20323;-87
2022/01/15 10:48:08;;;;;;;6.40;1.80;;;;;;;-2.97;78.54;100654.69;4983507;28;20046;-89
2022/01/15 10:50:39;;;;;;;10.52;1.92;;;;;;;-2.83;78.85;100674.06;4983288;28;20242;-85
2022/01/15 10:53:12;;;;;;;6.00;1.98;;;;;;;-3.01;79.14;100657.94;4983451;28;20106;-87
2022/01/15 10:55:45;;;;;;;6.00;1.90;;;;;;;-2.88;79.11;100681.53;4983546;28;20098;-88
2022/01/15 10:58:17;;;;;;;7.00;1.40;;;;;;;-2.90;79.13;100679.72;4983325;28;20110;-90
2022/01/15 11:00:51;;;;;;;4.57;1.58;;;;;;;-2.94;79.02;100680.41;4983420;28;20043;-88
2022/01/15 11:03:23;;;;;;;6.57;2.08;;;;;;;-2.99;79.34;100681.88;4965638;28;20058;-88
2022/01/15 11:05:55;;;;;;;5.32;1.60;;;;;;;-2.99;79.43;100687.00;4983300;28;20066;-90
2022/01/15 11:08:27;;;;;;;7.78;1.65;;;;;;;-3.23;79.62;100656.97;4983474;28;20074;-88
2022/01/15 11:11:00;;;;;;;8.85;1.83;;;;;;;-3.09;79.59;100676.34;4983101;28;20327;-84
2022/01/15 11:13:34;;;;;;;3.53;1.85;;;;;;;-3.07;79.40;100695.19;4988441;28;20077;-86
2022/01/15 11:16:08;;;;;;;9.48;1.70;;;;;;;-3.08;79.22;100693.44;4990538;28;20061;-87
2022/01/15 11:18:42;;;;;;;4.80;1.90;;;;;;;-3.18;79.28;100677.63;4988726;28;20511;-88
2022/01/15 11:21:18;;;;;;;5.38;1.92;;;;;;;-3.15;78.43;100681.16;4991779;28;20593;-87
2022/01/15 11:23:50;;;;;;;8.82;2.00;;;;;;;-3.05;78.53;100698.66;4992837;28;20057;-87
2022/01/15 11:26:24;;;;;;;10.18;2.17;;;;;;;-3.06;78.29;100702.03;4989519;28;20042;-87
2022/01/15 11:28:57;;;;;;;3.47;1.60;;;;;;;-3.05;78.61;100703.78;4990233;28;20054;-87
2022/01/15 11:31:32;;;;;;;5.38;1.92;;;;;;;-3.17;78.11;100687.91;4989232;28;20054;-85
2022/01/15 11:34:09;;;;;;;7.78;2.05;;;;;;;-3.05;78.43;100703.78;4968550;28;20129;-86
2022/01/15 11:36:41;;;;;;;10.88;2.60;;;;;;;-3.08;78.01;100706.22;4966143;28;20058;-85
2022/01/15 11:39:13;;;;;;;5.80;1.90;;;;;;;-3.10;77.92;100705.25;4966857;28;20051;-87
2022/01/15 11:41:48;;;;;;;7.70;2.00;;;;;;;-3.64;78.24;100627.84;4963140;29;20051;-87
2022/01/15 11:44:19;;;;;;;8.18;2.10;;;;;;;-3.38;78.40;100681.81;4963226;28;20043;-86
2022/01/15 11:46:54;;;;;;;7.68;1.83;;;;;;;-3.85;78.11;100606.41;4963172;29;20059;-89
2022/01/15 11:49:33;;;;;;;8.88;2.10;;;;;;;-3.29;78.10;100707.81;4962856;29;20058;-83
2022/01/15 11:52:41;;;;;;;9.30;2.00;;;;;;;-3.23;78.12;100715.72;4965259;28;20082;-86
2022/01/15 11:55:29;;;;;;;6.07;2.25;;;;;;;-3.42;77.89;100693.59;4966650;28;20112;-89
2022/01/15 11:58:00;;;;;;;11.27;2.25;;;;;;;-3.42;77.82;100716.56;4966016;28;20098;-89
2022/01/15 12:00:35;;;;;;;8.10;2.53;;;;;;;-3.54;77.65;100721.97;4970192;28;20243;-87
2022/01/15 12:03:26;;;;;;;10.68;2.30;;;;;;;-3.85;77.78;100744.28;4962612;28;20078;-87
2022/01/15 12:06:02;;;;;;;6.20;2.10;;;;;;;-3.76;77.60;100760.06;4950024;29;20047;-86
2022/01/15 12:08:34;;;;;;;12.82;2.42;;;;;;;-4.09;77.93;100765.22;4962613;28;20070;-88